Terminal Aerodrome Forecast
Issued by NWS

Home | Current Version | Previous Version | Text Only | Print | Product List | Glossary On
Versions: 1 2 3 4 5 6 7 8 9 10 11 12 13 14 15 16 17
000
FTUS43 KDTX 171738
TAFYIP
TAF
KYIP 171738Z 1718/1818 21014G20KT P6SM SCT035 BKN150
     FM180100 23016G24KT P6SM SCT150
     FM180700 22014KT P6SM SCT150
     FM181500 23012KT P6SM FEW035 SCT150=

USA.gov is the U.S. government's official web portal to all federal, state and local government web resources and services.